Time;durP1;ratioP1;P1;durP2;ratioP2;P2;SDS_P1;SDS_P2;PMS_P1;PMS_P2;Temp;Humidity;BMP_temperature;BMP_pressure;BME280_temperature;BME280_humidity;BME280_pressure;Samples;Min_cycle;Max_cycle;Signal;HPM_P1;HPM_P2
2021/07/05 00:02:41;;;;;;;4.30;3.10;;;;;;;19.44;67.78;100753.00;10061493;28;20381;-81
2021/07/05 00:07:41;;;;;;;5.75;3.33;;;;;;;19.40;68.48;100749.41;10038435;28;20074;-81
2021/07/05 00:12:40;;;;;;;5.25;2.80;;;;;;;19.37;68.32;100744.59;10054748;28;20078;-81
2021/07/05 00:17:39;;;;;;;5.00;3.22;;;;;;;19.37;68.51;100752.91;10045129;28;20463;-81
2021/07/05 00:22:36;;;;;;;5.05;3.30;;;;;;;19.31;69.13;100755.22;10044640;28;20586;-80
2021/07/05 00:27:32;;;;;;;4.40;2.80;;;;;;;19.28;69.38;100750.41;10048358;28;20518;-80
2021/07/05 00:32:29;;;;;;;5.50;3.75;;;;;;;19.31;68.75;100755.22;10063410;28;20055;-80
2021/07/05 00:37:27;;;;;;;4.90;3.38;;;;;;;19.31;68.95;100762.75;10045867;28;20067;-80
2021/07/05 00:42:24;;;;;;;5.25;3.00;;;;;;;19.28;69.25;100760.72;10055052;28;20055;-80
2021/07/05 00:47:20;;;;;;;4.70;3.00;;;;;;;19.26;69.37;100740.88;10055463;28;20118;-80
2021/07/05 00:52:17;;;;;;;5.72;2.88;;;;;;;19.24;69.48;100743.22;10041852;28;20044;-81
2021/07/05 00:57:20;;;;;;;5.40;3.75;;;;;;;19.17;69.44;100738.41;10038379;28;20054;-80
2021/07/05 01:07:30;;;;;;;4.82;2.97;;;;;;;19.12;70.25;100733.19;10824137;23;20067;-70
2021/07/05 01:12:26;;;;;;;7.70;3.83;;;;;;;19.09;70.50;100731.97;10099621;28;20071;-71
2021/07/05 01:17:23;;;;;;;4.85;3.70;;;;;;;19.07;70.30;100723.22;10099724;28;20094;-71
2021/07/05 01:22:20;;;;;;;6.68;3.28;;;;;;;19.04;70.56;100718.44;10102570;28;20524;-73
2021/07/05 01:27:17;;;;;;;5.35;3.40;;;;;;;19.08;71.06;100724.84;10089838;28;20576;-71
2021/07/05 01:32:14;;;;;;;5.32;3.63;;;;;;;19.07;71.87;100723.22;10102520;28;20502;-71
2021/07/05 01:42:18;;;;;;;4.82;3.58;;;;;;;19.04;71.50;100707.34;12119456;23;20495;-77
2021/07/05 01:47:15;;;;;;;6.82;4.28;;;;;;;19.04;71.80;100707.34;10086618;28;20408;-79
2021/07/05 01:52:14;;;;;;;5.97;3.85;;;;;;;19.06;71.92;100705.00;10079768;28;20705;-77
2021/07/05 01:57:24;;;;;;;7.00;3.95;;;;;;;19.05;72.46;100708.97;10097285;28;20047;-77
2021/07/05 02:02:22;;;;;;;7.07;4.13;;;;;;;19.06;72.46;100710.56;10106721;28;20109;-77
2021/07/05 02:07:20;;;;;;;6.13;4.05;;;;;;;19.07;72.36;100716.88;10099946;28;20512;-76
2021/07/05 02:12:17;;;;;;;7.18;4.20;;;;;;;19.13;71.49;100716.19;10101815;28;20047;-77
2021/07/05 02:17:14;;;;;;;6.65;3.95;;;;;;;19.19;70.89;100713.06;10120896;28;20051;-76
2021/07/05 02:22:11;;;;;;;8.20;4.63;;;;;;;19.25;70.97;100711.56;10086423;28;20518;-77
2021/07/05 02:27:07;;;;;;;5.95;4.47;;;;;;;19.24;70.09;100718.28;10100784;28;20059;-76
2021/07/05 02:32:05;;;;;;;6.40;4.20;;;;;;;19.15;70.07;100713.03;10102012;28;20113;-77
2021/07/05 02:37:03;;;;;;;6.45;3.97;;;;;;;19.19;70.16;100710.31;10099061;28;20047;-77
2021/07/05 02:42:00;;;;;;;6.95;3.88;;;;;;;19.17;70.52;100709.88;10099808;28;20046;-77
2021/07/05 02:46:56;;;;;;;5.53;3.70;;;;;;;19.01;70.90;100702.56;10098916;28;20058;-76
2021/07/05 02:51:53;;;;;;;5.60;3.63;;;;;;;18.87;73.26;100707.94;10098294;28;20479;-77
2021/07/05 02:56:50;;;;;;;4.75;3.33;;;;;;;18.77;73.57;100697.47;10100656;28;20047;-77
2021/07/05 03:01:47;;;;;;;6.63;3.92;;;;;;;18.54;74.94;100712.16;10096357;28;20058;-77
2021/07/05 03:06:43;;;;;;;5.88;4.40;;;;;;;18.54;75.13;100717.69;10093567;28;20046;-78
2021/07/05 03:11:40;;;;;;;6.80;3.80;;;;;;;18.50;76.06;100722.38;10089227;28;20113;-77
2021/07/05 03:16:37;;;;;;;6.80;4.72;;;;;;;18.53;75.97;100721.63;10090933;28;20498;-77
2021/07/05 03:21:34;;;;;;;8.23;5.22;;;;;;;18.49;76.91;100724.34;10083503;28;20051;-77
2021/07/05 03:26:31;;;;;;;9.90;7.18;;;;;;;18.55;76.58;100719.28;10089926;28;20047;-77
2021/07/05 03:31:28;;;;;;;10.20;8.30;;;;;;;18.44;77.84;100723.84;10096843;28;20055;-77
2021/07/05 03:36:25;;;;;;;13.55;9.65;;;;;;;18.36;78.66;100719.41;10094876;28;20114;-78
2021/07/05 03:41:22;;;;;;;13.57;9.68;;;;;;;18.33;79.05;100717.34;10091083;28;20050;-77
2021/07/05 03:46:19;;;;;;;15.20;10.52;;;;;;;18.34;79.31;100725.28;10133059;28;20054;-78
2021/07/05 03:51:18;;;;;;;15.02;10.88;;;;;;;18.22;80.14;100720.75;10092258;28;20055;-77
2021/07/05 03:56:16;;;;;;;15.20;10.65;;;;;;;18.21;80.72;100721.91;10111959;28;20077;-76
2021/07/05 04:01:13;;;;;;;13.70;10.65;;;;;;;18.14;80.87;100724.56;10092678;28;20057;-75
2021/07/05 04:06:24;;;;;;;13.75;10.60;;;;;;;18.24;80.38;100714.81;10087699;28;20047;-75
2021/07/05 04:11:29;;;;;;;15.15;11.93;;;;;;;18.21;80.58;100723.88;10081038;28;20162;-81
2021/07/05 04:16:27;;;;;;;18.67;14.02;;;;;;;18.22;81.03;100722.72;10088252;28;20047;-80
2021/07/05 04:21:26;;;;;;;17.25;12.98;;;;;;;18.24;81.01;100737.78;10094622;28;20050;-78
2021/07/05 04:26:23;;;;;;;17.70;13.77;;;;;;;18.37;80.72;100729.28;10096906;28;20051;-78
2021/07/05 04:31:28;;;;;;;19.13;15.23;;;;;;;18.28;80.32;100744.16;10099425;28;20043;-80
2021/07/05 04:36:25;;;;;;;17.83;15.57;;;;;;;18.35;79.96;100728.84;10099534;28;20094;-80
2021/07/05 04:41:25;;;;;;;19.60;16.20;;;;;;;18.31;80.05;100726.03;10095631;28;20082;-80
2021/07/05 04:46:27;;;;;;;17.67;15.60;;;;;;;18.28;80.01;100729.53;10091558;28;20050;-80
2021/07/05 04:51:26;;;;;;;20.27;17.20;;;;;;;18.30;80.01;100728.00;10095866;28;20053;-81
2021/07/05 04:56:23;;;;;;;19.73;17.75;;;;;;;18.35;80.08;100724.09;10111546;28;20513;-80
2021/07/05 05:01:20;;;;;;;20.65;18.10;;;;;;;18.32;79.70;100726.84;10066327;28;20183;-81
2021/07/05 05:06:17;;;;;;;18.40;15.85;;;;;;;18.29;79.48;100722.84;10067967;28;20043;-81
2021/07/05 05:11:13;;;;;;;19.05;15.70;;;;;;;18.22;79.28;100719.97;10082906;28;20466;-78
2021/07/05 05:16:11;;;;;;;17.67;13.05;;;;;;;18.28;79.16;100727.56;10078250;28;20051;-78
2021/07/05 05:21:08;;;;;;;18.98;15.10;;;;;;;18.28;79.02;100727.56;10081562;28;20135;-77
2021/07/05 05:26:05;;;;;;;17.98;16.08;;;;;;;18.34;78.81;100718.97;10073334;28;20051;-77
2021/07/05 05:31:03;;;;;;;17.73;15.82;;;;;;;18.41;78.61;100719.06;10085651;28;20051;-77
2021/07/05 05:35:59;;;;;;;15.18;11.35;;;;;;;18.38;77.47;100725.34;10111703;28;20133;-77
2021/07/05 05:40:56;;;;;;;16.30;11.57;;;;;;;18.37;76.96;100730.06;10102523;28;20130;-76
2021/07/05 05:45:53;;;;;;;14.23;12.15;;;;;;;18.24;77.30;100731.44;10098878;28;20042;-77
2021/07/05 05:50:54;;;;;;;15.95;12.90;;;;;;;18.04;77.12;100739.00;10098646;28;20053;-77
2021/07/05 05:55:51;;;;;;;16.17;14.25;;;;;;;18.08;77.68;100734.34;10104213;28;20039;-77
2021/07/05 06:00:48;;;;;;;17.63;13.32;;;;;;;18.09;78.12;100730.41;10103347;28;20153;-76
2021/07/05 06:05:45;;;;;;;15.48;12.98;;;;;;;18.17;78.50;100743.19;10100763;28;20051;-76
2021/07/05 06:10:42;;;;;;;19.85;15.07;;;;;;;18.18;78.75;100727.41;10095021;28;20047;-76
2021/07/05 06:15:39;;;;;;;20.23;13.45;;;;;;;18.25;78.57;100739.38;10090794;28;20055;-77
2021/07/05 06:20:36;;;;;;;14.80;10.82;;;;;;;18.24;77.57;100737.78;10102878;28;20057;-76
2021/07/05 06:25:34;;;;;;;12.18;9.30;;;;;;;18.12;76.72;100739.94;10092170;28;20058;-76
2021/07/05 06:30:31;;;;;;;15.23;10.70;;;;;;;18.09;76.67;100739.50;10100620;28;20063;-76
2021/07/05 06:35:28;;;;;;;13.40;10.02;;;;;;;18.16;77.43;100747.13;10096171;28;20126;-76
2021/07/05 06:40:25;;;;;;;13.75;9.93;;;;;;;18.19;77.93;100743.59;10112784;28;20134;-76
2021/07/05 06:45:22;;;;;;;11.20;8.98;;;;;;;18.18;77.13;100744.78;10104221;28;20061;-77
2021/07/05 06:50:19;;;;;;;14.32;8.75;;;;;;;18.19;76.39;100746.38;10095580;28;20062;-76
2021/07/05 06:55:15;;;;;;;12.25;8.98;;;;;;;18.34;76.89;100735.56;10079993;28;20050;-77
2021/07/05 07:00:15;;;;;;;11.57;8.77;;;;;;;18.51;76.41;100729.50;10105683;28;20058;-76
2021/07/05 07:05:14;;;;;;;12.23;9.80;;;;;;;18.44;75.70;100734.94;10095004;28;20042;-76
2021/07/05 07:10:13;;;;;;;12.75;10.45;;;;;;;18.51;75.17;100740.59;10110953;28;20055;-76
2021/07/05 07:15:10;;;;;;;11.85;9.57;;;;;;;18.54;74.46;100733.50;10097085;28;20055;-77
2021/07/05 07:20:10;;;;;;;16.60;12.63;;;;;;;18.45;73.65;100744.81;10104976;28;20054;-77
2021/07/05 07:25:10;;;;;;;13.18;10.93;;;;;;;18.50;73.26;100739.78;10112941;28;20049;-77
2021/07/05 07:30:09;;;;;;;13.75;11.98;;;;;;;18.58;72.85;100729.63;10092007;28;20138;-76
2021/07/05 07:35:15;;;;;;;14.27;11.82;;;;;;;18.56;72.30;100714.56;10106605;28;20078;-77
2021/07/05 07:40:18;;;;;;;13.98;12.10;;;;;;;18.46;71.99;100707.69;10094964;28;20494;-76
2021/07/05 07:45:17;;;;;;;14.57;11.98;;;;;;;18.77;71.67;100714.09;10089057;28;20062;-76
2021/07/05 07:50:16;;;;;;;12.65;9.98;;;;;;;18.74;71.19;100723.13;10091597;28;20062;-76
2021/07/05 07:55:15;;;;;;;15.20;10.10;;;;;;;18.68;71.18;100728.16;10095052;28;20046;-76
2021/07/05 08:00:14;;;;;;;11.98;10.20;;;;;;;18.74;71.03;100731.44;10099935;28;20047;-76
2021/07/05 08:05:12;;;;;;;13.38;11.63;;;;;;;18.82;70.78;100733.16;10102842;28;20046;-77
2021/07/05 08:10:10;;;;;;;13.55;11.23;;;;;;;18.93;70.22;100723.81;10078802;28;20058;-76
2021/07/05 08:15:10;;;;;;;16.20;11.65;;;;;;;18.80;68.82;100707.78;10092526;28;20082;-76
2021/07/05 08:20:08;;;;;;;11.02;9.60;;;;;;;19.01;68.49;100708.13;10100186;28;20503;-77
2021/07/05 08:25:06;;;;;;;9.45;7.97;;;;;;;19.46;69.27;100699.94;10087762;28;20061;-77
2021/07/05 08:30:05;;;;;;;12.63;8.93;;;;;;;19.69;66.82;100700.63;10090965;28;20053;-76
2021/07/05 08:35:06;;;;;;;10.57;7.85;;;;;;;19.66;66.18;100706.13;10086655;28;20042;-76
2021/07/05 08:40:05;;;;;;;11.02;8.63;;;;;;;19.72;65.55;100701.84;10090008;28;20735;-76
2021/07/05 08:45:04;;;;;;;14.43;8.45;;;;;;;19.69;65.37;100713.69;10087277;28;20053;-77
2021/07/05 08:50:01;;;;;;;10.77;9.02;;;;;;;19.57;66.01;100714.72;10087833;28;20515;-77
2021/07/05 08:54:57;;;;;;;14.65;10.25;;;;;;;19.54;66.76;100713.53;10089601;28;20054;-77
2021/07/05 08:59:54;;;;;;;10.98;8.73;;;;;;;19.51;66.07;100719.81;10099084;28;20047;-77
2021/07/05 09:04:51;;;;;;;13.73;7.63;;;;;;;19.57;65.70;100725.03;10091762;28;20043;-77
2021/07/05 09:10:17;;;;;;;11.57;9.43;;;;;;;19.45;65.87;100721.34;10091588;28;20042;-77
2021/07/05 09:15:14;;;;;;;13.55;9.80;;;;;;;19.44;67.52;100714.19;10063912;28;20058;-76
2021/07/05 09:20:14;;;;;;;9.80;8.45;;;;;;;19.58;66.02;100713.53;10090707;28;20054;-77
2021/07/05 09:25:10;;;;;;;11.23;8.45;;;;;;;19.86;65.42;100723.38;10083708;28;20410;-77
2021/07/05 09:30:09;;;;;;;11.52;9.13;;;;;;;20.14;63.70;100728.38;10089242;28;20043;-77
2021/07/05 09:35:14;;;;;;;11.13;8.75;;;;;;;20.46;62.46;100716.75;10079432;28;20070;-76
2021/07/05 09:40:12;;;;;;;10.43;9.23;;;;;;;20.45;61.80;100715.19;10088297;28;20465;-76
2021/07/05 09:45:27;;;;;;;10.63;8.95;;;;;;;20.39;61.07;100712.75;10095766;28;20589;-76
2021/07/05 09:50:33;;;;;;;13.63;7.60;;;;;;;20.84;61.15;100721.03;10089563;28;20392;-76
2021/07/05 09:55:33;;;;;;;9.88;8.52;;;;;;;21.11;59.69;100713.22;10106335;28;20070;-76
2021/07/05 10:00:29;;;;;;;10.52;8.52;;;;;;;21.13;59.69;100716.41;10097325;28;20515;-77
2021/07/05 10:05:44;;;;;;;9.25;6.90;;;;;;;20.85;60.84;100727.38;10093853;28;20051;-76
2021/07/05 10:10:44;;;;;;;10.25;8.02;;;;;;;20.85;60.93;100727.38;10089101;28;20054;-76
2021/07/05 10:15:42;;;;;;;9.15;7.43;;;;;;;21.11;60.83;100718.78;10099813;28;20051;-76
2021/07/05 10:20:42;;;;;;;10.65;7.53;;;;;;;21.11;60.03;100715.19;10098948;28;20057;-76
2021/07/05 10:25:41;;;;;;;10.85;8.60;;;;;;;21.12;59.71;100731.50;10120219;28;20072;-76
2021/07/05 10:30:39;;;;;;;7.40;5.93;;;;;;;21.23;58.97;100731.53;10092817;28;20058;-76
2021/07/05 10:35:39;;;;;;;7.03;5.88;;;;;;;21.62;57.40;100739.25;10103148;28;20569;-76
2021/07/05 10:40:40;;;;;;;6.88;5.25;;;;;;;21.76;56.45;100724.59;10102239;28;20495;-76
2021/07/05 10:45:52;;;;;;;8.55;5.47;;;;;;;21.70;56.55;100742.84;10105662;28;20049;-77
2021/07/05 10:50:52;;;;;;;7.53;4.97;;;;;;;21.95;55.67;100743.69;10090149;28;20101;-76
2021/07/05 10:55:51;;;;;;;6.75;4.00;;;;;;;22.08;54.47;100740.56;10097030;28;20047;-77
2021/07/05 11:00:51;;;;;;;6.60;4.45;;;;;;;21.78;54.46;100741.69;10120193;28;20051;-76
2021/07/05 11:05:49;;;;;;;6.43;4.30;;;;;;;21.66;55.00;100742.84;10096100;28;20047;-77
2021/07/05 11:10:46;;;;;;;6.30;4.65;;;;;;;;;;10098000;28;20065;-76
2021/07/05 11:15:57;;;;;;;6.50;4.45;;;;;;;21.64;54.40;100742.44;10099121;28;20047;-76
2021/07/05 11:20:54;;;;;;;7.18;4.68;;;;;;;21.76;54.99;100730.16;10093757;28;20054;-76
2021/07/05 11:26:18;;;;;;;8.20;4.88;;;;;;;21.77;55.48;100737.31;10094069;28;20070;-76
2021/07/05 11:31:20;;;;;;;6.90;4.63;;;;;;;22.04;55.54;100738.53;10106256;28;20047;-76
2021/07/05 11:36:21;;;;;;;5.07;3.20;;;;;;;21.96;53.09;100725.81;10110406;28;20042;-76
2021/07/05 11:41:18;;;;;;;6.80;3.53;;;;;;;21.96;53.29;100717.47;10099317;28;20079;-77
2021/07/05 11:46:18;;;;;;;4.95;3.30;;;;;;;22.09;52.68;100725.44;10110707;28;20054;-77
2021/07/05 11:51:23;;;;;;;5.80;2.80;;;;;;;22.12;51.94;100724.63;10113337;28;20479;-77
2021/07/05 11:56:28;;;;;;;3.60;2.10;;;;;;;22.28;50.72;100739.00;10090873;28;20065;-77
2021/07/05 12:01:27;;;;;;;4.22;2.60;;;;;;;22.27;51.36;100743.78;10107536;28;20088;-76
2021/07/05 12:06:24;;;;;;;4.85;2.50;;;;;;;21.99;53.02;100736.16;10099716;28;20050;-76
2021/07/05 12:11:43;;;;;;;4.50;2.70;;;;;;;21.73;53.77;100736.53;10089339;28;20431;-76
2021/07/05 12:16:44;;;;;;;5.75;2.60;;;;;;;21.52;53.83;100726.91;10091835;28;20054;-76
2021/07/05 12:21:53;;;;;;;4.97;2.80;;;;;;;21.48;54.96;100720.53;10093973;28;20493;-77
2021/07/05 12:26:51;;;;;;;7.25;3.20;;;;;;;21.54;55.91;100718.97;10095877;28;20054;-76
2021/07/05 12:31:59;;;;;;;6.30;3.22;;;;;;;21.48;56.27;100720.53;10097321;28;20710;-76
2021/07/05 12:36:56;;;;;;;6.18;3.22;;;;;;;21.51;56.53;100713.41;10095187;28;20078;-77
2021/07/05 12:41:52;;;;;;;5.13;3.50;;;;;;;21.35;57.83;100722.03;10096297;28;20082;-76
2021/07/05 12:46:49;;;;;;;5.53;2.97;;;;;;;21.28;57.90;100724.81;10098771;28;20054;-77
2021/07/05 12:51:46;;;;;;;5.13;2.95;;;;;;;20.92;59.61;100732.97;10095150;28;20696;-76
2021/07/05 12:56:42;;;;;;;5.72;4.00;;;;;;;20.55;63.55;100736.66;10089682;28;20057;-76
2021/07/05 13:01:40;;;;;;;7.60;4.40;;;;;;;20.23;67.71;100759.41;10109792;28;20046;-76
2021/07/05 13:07:09;;;;;;;6.55;3.50;;;;;;;19.91;69.46;100765.47;10093766;28;20090;-76
2021/07/05 13:12:09;;;;;;;3.58;1.73;;;;;;;19.60;68.29;100776.97;10091358;28;20051;-77
2021/07/05 13:17:08;;;;;;;8.18;1.35;;;;;;;19.36;70.63;100773.50;10083497;28;20047;-77
2021/07/05 13:22:11;;;;;;;3.20;1.40;;;;;;;19.07;72.98;100780.63;10092152;28;20086;-76
2021/07/05 13:27:22;;;;;;;4.90;0.60;;;;;;;18.78;73.06;100782.19;10095776;28;20050;-76
2021/07/05 13:32:21;;;;;;;2.25;0.88;;;;;;;18.67;73.63;100791.06;10079892;28;20064;-76
2021/07/05 13:37:27;;;;;;;2.83;1.00;;;;;;;18.63;74.23;100798.53;10088464;28;20046;-76
2021/07/05 13:42:24;;;;;;;3.35;0.70;;;;;;;18.25;74.47;100811.31;10087805;28;20695;-76
2021/07/05 13:47:25;;;;;;;1.73;0.70;;;;;;;18.33;75.37;100811.44;10100694;28;20500;-76
2021/07/05 13:52:33;;;;;;;2.15;1.00;;;;;;;18.42;75.64;100803.72;10093204;28;20062;-76
2021/07/05 13:57:33;;;;;;;2.47;1.08;;;;;;;18.46;76.46;100815.66;10089692;28;20039;-76
2021/07/05 14:02:30;;;;;;;2.17;0.82;;;;;;;18.36;75.24;100817.06;10101763;28;20109;-76
2021/07/05 14:07:27;;;;;;;2.00;0.93;;;;;;;18.46;72.88;100829.50;10090678;28;20562;-76
2021/07/05 14:12:23;;;;;;;2.28;0.98;;;;;;;18.53;72.30;100815.75;10104012;28;20051;-76
2021/07/05 14:17:20;;;;;;;3.85;1.42;;;;;;;18.71;71.91;100816.88;10096061;28;20053;-76
2021/07/05 14:22:19;;;;;;;3.42;1.50;;;;;;;18.63;71.88;100820.66;10101962;28;20514;-76
2021/07/05 14:27:15;;;;;;;3.97;1.70;;;;;;;18.58;72.50;100840.38;10102059;28;20047;-77
2021/07/05 14:32:12;;;;;;;6.13;2.80;;;;;;;18.52;73.70;100830.78;10099747;28;20502;-76
2021/07/05 14:37:09;;;;;;;4.32;2.47;;;;;;;18.62;73.61;100813.53;10094001;28;20062;-76
2021/07/05 14:42:06;;;;;;;3.33;2.22;;;;;;;18.76;73.55;100809.41;10097798;28;20066;-76
2021/07/05 14:47:04;;;;;;;4.43;2.50;;;;;;;19.11;73.77;100806.41;10107545;28;20057;-76
2021/07/05 14:52:00;;;;;;;4.35;2.30;;;;;;;19.48;72.38;100794.63;10099700;28;20499;-76
2021/07/05 14:56:57;;;;;;;3.97;2.00;;;;;;;20.13;70.95;100798.97;10089685;28;20058;-76
2021/07/05 15:01:53;;;;;;;4.15;2.17;;;;;;;20.23;68.03;100798.28;10097056;28;20057;-77
2021/07/05 15:06:51;;;;;;;3.88;1.63;;;;;;;20.16;66.46;100803.75;10096833;28;20058;-77
2021/07/05 15:11:51;;;;;;;3.83;2.00;;;;;;;20.29;67.00;100802.31;10086620;28;20070;-79
2021/07/05 15:16:48;;;;;;;3.55;1.90;;;;;;;20.32;65.65;100801.53;10090388;28;20050;-79
2021/07/05 15:21:45;;;;;;;4.03;2.20;;;;;;;20.65;65.26;100802.63;10085298;28;20106;-80
2021/07/05 15:26:42;;;;;;;3.95;2.25;;;;;;;20.68;63.15;100799.09;10091194;28;20054;-79
2021/07/05 15:31:42;;;;;;;3.45;1.90;;;;;;;21.01;62.96;100797.34;10089757;28;20142;-79
2021/07/05 15:36:39;;;;;;;5.90;2.10;;;;;;;21.19;61.46;100801.03;10081070;28;20047;-76
2021/07/05 15:41:36;;;;;;;3.53;2.25;;;;;;;21.25;61.76;100795.09;10094838;28;20055;-76
2021/07/05 15:46:36;;;;;;;3.22;2.25;;;;;;;21.42;60.97;100805.53;10100772;28;20054;-76
2021/07/05 15:51:33;;;;;;;3.08;2.05;;;;;;;21.90;61.56;100796.19;10092457;28;20086;-76
2021/07/05 15:56:30;;;;;;;4.68;2.45;;;;;;;22.45;58.66;100805.06;10095099;28;20073;-76
2021/07/05 16:01:27;;;;;;;9.90;2.90;;;;;;;22.01;58.97;100797.81;10088676;28;20063;-76
2021/07/05 16:06:24;;;;;;;4.65;2.50;;;;;;;21.82;59.21;100789.81;10100340;28;20081;-75
2021/07/05 16:11:20;;;;;;;4.55;2.25;;;;;;;22.44;59.06;100795.13;10092573;28;20054;-76
2021/07/05 16:16:18;;;;;;;4.57;2.58;;;;;;;21.97;57.56;100785.88;10090584;28;20047;-75
2021/07/05 16:21:15;;;;;;;5.55;3.58;;;;;;;21.68;59.24;100784.22;10097285;28;20054;-76
2021/07/05 16:26:12;;;;;;;4.38;3.10;;;;;;;21.56;59.58;100783.38;10096729;28;20553;-76
2021/07/05 16:31:08;;;;;;;6.20;4.72;;;;;;;21.26;61.75;100791.94;10082075;28;20070;-76
2021/07/05 16:36:05;;;;;;;6.00;3.85;;;;;;;21.13;61.05;100794.25;10106055;28;20057;-76
2021/07/05 16:41:02;;;;;;;4.72;3.20;;;;;;;21.08;62.44;100797.41;10087466;28;20061;-76
2021/07/05 16:45:59;;;;;;;5.15;4.00;;;;;;;20.75;63.71;100804.72;10092788;28;20039;-72
2021/07/05 16:56:06;;;;;;;6.57;4.75;;;;;;;20.67;64.81;100810.59;10087107;28;20043;-79
2021/07/05 17:01:06;;;;;;;8.73;6.05;;;;;;;20.58;65.26;100808.13;10074534;28;20059;-79
2021/07/05 17:06:03;;;;;;;5.07;4.00;;;;;;;20.60;65.54;100811.34;10082346;28;20042;-78
2021/07/05 17:11:00;;;;;;;7.63;5.88;;;;;;;21.13;65.25;100802.59;10071263;28;20051;-79
2021/07/05 17:15:57;;;;;;;4.75;3.97;;;;;;;;;;10078679;28;20646;-79
2021/07/05 17:20:54;;;;;;;5.70;4.05;;;;;;;21.43;64.09;100807.16;10080267;28;20051;-80
2021/07/05 17:25:51;;;;;;;5.47;4.25;;;;;;;21.33;63.52;100813.44;10084752;28;20466;-78
2021/07/05 17:30:48;;;;;;;4.50;3.50;;;;;;;21.41;65.02;100834.56;10083331;28;20050;-79
2021/07/05 17:35:45;;;;;;;7.65;3.60;;;;;;;21.51;64.46;100819.09;10084034;28;20043;-83
2021/07/05 17:40:42;;;;;;;4.88;3.85;;;;;;;21.48;64.19;100825.44;10085151;28;20133;-81
2021/07/05 17:45:39;;;;;;;4.82;4.00;;;;;;;21.42;63.67;100816.66;10087668;28;20053;-77
2021/07/05 17:50:36;;;;;;;5.35;4.00;;;;;;;21.25;64.16;100823.69;10111119;28;20050;-77
2021/07/05 17:55:33;;;;;;;5.38;3.67;;;;;;;21.04;64.71;100820.78;10084540;28;20055;-78
2021/07/05 18:00:29;;;;;;;6.63;3.17;;;;;;;21.73;63.73;100814.44;10092237;28;20055;-76
2021/07/05 18:05:26;;;;;;;5.07;3.33;;;;;;;21.40;64.75;100821.84;10093130;28;20057;-76
2021/07/05 18:10:25;;;;;;;4.55;3.20;;;;;;;21.23;66.21;100826.06;10096594;28;20384;-78
2021/07/05 18:15:25;;;;;;;4.30;3.40;;;;;;;21.11;67.21;100827.19;10082541;28;20581;-77
2021/07/05 18:20:22;;;;;;;5.22;3.60;;;;;;;20.98;67.38;100834.28;10080638;28;20419;-75
2021/07/05 18:25:21;;;;;;;6.20;3.58;;;;;;;20.89;67.87;100837.38;10099326;28;20407;-75
2021/07/05 18:30:22;;;;;;;6.35;3.60;;;;;;;20.78;68.08;100834.50;10099998;28;20147;-76
2021/07/05 18:35:20;;;;;;;6.30;3.60;;;;;;;20.70;69.06;100838.41;10087506;28;20046;-77
2021/07/05 18:40:20;;;;;;;4.53;3.00;;;;;;;20.64;69.70;100828.03;10097817;28;20538;-77
2021/07/05 18:45:19;;;;;;;5.15;3.88;;;;;;;20.52;70.77;100840.22;10094660;28;20051;-75
2021/07/05 18:50:18;;;;;;;6.72;4.03;;;;;;;20.35;71.08;100849.94;10099898;28;20049;-76
2021/07/05 18:55:15;;;;;;;8.00;5.35;;;;;;;20.30;70.99;100853.88;10090567;28;20054;-76
2021/07/05 19:00:13;;;;;;;6.15;3.90;;;;;;;20.29;71.51;100841.19;10094911;28;20042;-76
2021/07/05 19:05:11;;;;;;;6.28;4.32;;;;;;;20.27;72.17;100837.19;10091181;28;20411;-76
2021/07/05 19:10:08;;;;;;;5.90;4.10;;;;;;;20.16;72.21;100843.41;10098100;28;20043;-76
2021/07/05 19:15:08;;;;;;;5.80;4.35;;;;;;;20.00;72.30;100839.28;10103342;28;20057;-75
2021/07/05 19:20:06;;;;;;;6.75;4.20;;;;;;;19.84;72.10;100837.53;10097691;28;20058;-76
2021/07/05 19:25:03;;;;;;;6.95;3.88;;;;;;;19.68;72.48;100847.97;10091489;28;20046;-77
2021/07/05 19:30:01;;;;;;;7.88;4.28;;;;;;;19.56;72.98;100860.09;10088920;28;20065;-76
2021/07/05 19:34:57;;;;;;;7.55;4.13;;;;;;;19.47;73.63;100846.53;10093570;28;20043;-76
2021/07/05 19:39:54;;;;;;;6.03;4.20;;;;;;;19.39;73.66;100861.47;10099041;28;20550;-76
2021/07/05 19:44:51;;;;;;;7.40;4.28;;;;;;;19.30;73.56;100869.25;10093091;28;20543;-76
2021/07/05 19:49:49;;;;;;;5.78;4.55;;;;;;;19.20;73.48;100864.34;10075617;28;20078;-79
2021/07/05 19:54:45;;;;;;;7.30;4.55;;;;;;;19.11;73.92;100862.63;10106725;28;20506;-79
2021/07/05 19:59:42;;;;;;;5.68;4.60;;;;;;;18.98;74.10;100852.91;10080263;28;20048;-78
2021/07/05 20:04:39;;;;;;;7.57;4.93;;;;;;;18.91;74.36;100869.44;10080072;28;20123;-77
2021/07/05 20:09:36;;;;;;;8.05;4.90;;;;;;;18.83;74.60;100884.34;10077574;28;20053;-76
2021/07/05 20:14:35;;;;;;;7.60;5.60;;;;;;;18.75;74.79;100888.91;10108697;28;20545;-81
2021/07/05 20:19:32;;;;;;;7.53;5.38;;;;;;;18.70;74.97;100886.47;10098186;28;20047;-79
2021/07/05 20:24:32;;;;;;;5.95;4.90;;;;;;;18.62;75.29;100880.00;10085984;28;20055;-80
2021/07/05 20:29:28;;;;;;;6.60;5.30;;;;;;;18.55;75.41;100879.88;10081034;28;20730;-81
2021/07/05 20:34:25;;;;;;;9.48;7.18;;;;;;;18.50;75.79;100871.88;10087097;28;20059;-81
2021/07/05 20:39:21;;;;;;;10.43;6.38;;;;;;;18.45;76.17;100872.16;10090485;28;20051;-81
2021/07/05 20:44:19;;;;;;;10.15;7.22;;;;;;;18.37;76.39;100879.53;10088958;28;20140;-81
2021/07/05 20:49:16;;;;;;;9.90;7.05;;;;;;;18.27;77.00;100886.50;10099024;28;20616;-81
2021/07/05 20:54:12;;;;;;;9.40;6.78;;;;;;;18.19;77.09;100873.66;10094637;28;20066;-80
2021/07/05 20:59:09;;;;;;;8.85;7.00;;;;;;;18.16;77.08;100879.94;10096439;28;20110;-80
2021/07/05 21:04:06;;;;;;;9.57;7.72;;;;;;;18.11;77.19;100871.94;10104026;28;20047;-79
2021/07/05 21:09:03;;;;;;;9.02;7.55;;;;;;;18.09;77.41;100863.19;10095179;28;20045;-81
2021/07/05 21:13:59;;;;;;;9.55;7.28;;;;;;;18.03;77.66;100867.41;10097055;28;20495;-81
2021/07/05 21:18:56;;;;;;;9.23;7.43;;;;;;;18.03;77.66;100867.41;10117251;28;20035;-81
2021/07/05 21:23:53;;;;;;;10.90;7.80;;;;;;;18.00;77.72;100859.88;10097517;28;20054;-81
2021/07/05 21:28:50;;;;;;;9.30;8.25;;;;;;;17.94;77.93;100856.59;10095490;28;20394;-81
2021/07/05 21:33:46;;;;;;;9.70;7.50;;;;;;;17.86;78.03;100852.88;10096569;28;20129;-80
2021/07/05 21:38:43;;;;;;;8.50;7.22;;;;;;;17.87;78.22;100851.72;10095929;28;20412;-82
2021/07/05 21:43:40;;;;;;;8.95;7.15;;;;;;;17.83;78.49;100850.84;10095905;28;20046;-81
2021/07/05 21:48:36;;;;;;;9.52;7.38;;;;;;;17.82;78.61;100843.72;10099301;28;20043;-81
2021/07/05 21:53:33;;;;;;;11.00;7.68;;;;;;;17.80;78.92;100834.97;10093388;28;20090;-80
2021/07/05 21:58:30;;;;;;;8.80;7.78;;;;;;;17.79;78.83;100825.03;10092744;28;20053;-81
2021/07/05 22:03:27;;;;;;;9.50;8.35;;;;;;;17.80;79.05;100823.06;10087935;28;20050;-83
2021/07/05 22:08:23;;;;;;;10.25;6.53;;;;;;;17.78;79.28;100825.44;10096044;28;20054;-83
2021/07/05 22:13:20;;;;;;;8.43;7.25;;;;;;;17.78;79.46;100823.44;10102653;28;20130;-84
2021/07/05 22:18:17;;;;;;;8.38;7.25;;;;;;;17.73;79.35;100814.63;10100258;28;20050;-83
2021/07/05 22:23:14;;;;;;;10.30;8.00;;;;;;;17.67;79.28;100808.59;10104770;28;20562;-83
2021/07/05 22:28:11;;;;;;;8.00;6.28;;;;;;;17.69;79.45;100806.28;10101073;28;20046;-78
2021/07/05 22:33:07;;;;;;;8.65;7.00;;;;;;;17.65;79.62;100808.16;10108730;28;20097;-82
2021/07/05 22:38:04;;;;;;;8.70;6.00;;;;;;;17.65;79.72;100808.16;10100229;28;20054;-79
2021/07/05 22:43:01;;;;;;;9.30;5.75;;;;;;;17.61;79.59;100799.78;10112847;28;20051;-83
2021/07/05 22:47:57;;;;;;;6.70;5.20;;;;;;;17.53;79.70;100797.25;10099888;28;20435;-82
2021/07/05 22:52:54;;;;;;;6.95;5.40;;;;;;;17.53;79.58;100797.25;10102216;28;20051;-80
2021/07/05 22:57:51;;;;;;;7.63;5.22;;;;;;;17.48;79.80;100794.78;10100058;28;20711;-81
2021/07/05 23:02:50;;;;;;;6.50;4.90;;;;;;;17.41;79.87;100782.41;10091667;28;20051;-80